createdAt,value
2019-04-14T00:00:42.648Z,99.90
2019-04-14T00:03:23.756Z,99.90
2019-04-14T00:05:58.309Z,99.90
2019-04-14T00:08:28.435Z,99.90
2019-04-14T00:10:59.403Z,99.90
2019-04-14T00:13:30.587Z,99.90
2019-04-14T00:16:00.970Z,99.90
2019-04-14T00:18:31.575Z,99.90
2019-04-14T00:21:02.268Z,99.90
2019-04-14T00:23:32.636Z,99.90
2019-04-14T00:26:26.941Z,99.90
2019-04-14T00:28:57.920Z,99.90
2019-04-14T00:31:28.581Z,99.90
2019-04-14T00:34:05.608Z,99.90
2019-04-14T00:36:52.412Z,99.90
2019-04-14T00:39:29.624Z,99.90
2019-04-14T00:42:25.552Z,99.90
2019-04-14T00:45:06.966Z,99.90
2019-04-14T00:47:51.716Z,99.90
2019-04-14T00:50:12.516Z,99.90
2019-04-14T00:52:42.282Z,99.90
2019-04-14T00:55:13.987Z,99.90
2019-04-14T00:57:44.161Z,99.90
2019-04-14T01:00:19.266Z,99.90
2019-04-14T01:02:49.602Z,99.90
2019-04-14T01:05:19.834Z,99.90
2019-04-14T01:07:50.119Z,99.90
2019-04-14T01:10:23.546Z,99.90
2019-04-14T01:12:53.921Z,99.90
2019-04-14T01:15:24.616Z,99.90
2019-04-14T01:17:54.976Z,99.90
2019-04-14T01:20:25.357Z,99.90
2019-04-14T01:22:55.342Z,99.90
2019-04-14T01:25:26.066Z,99.90
2019-04-14T01:27:58.213Z,99.90
2019-04-14T01:30:43.622Z,99.90
2019-04-14T01:33:46.874Z,99.90
2019-04-14T01:40:07.561Z,99.90
2019-04-14T01:42:37.752Z,99.90
2019-04-14T01:45:08.595Z,99.90
2019-04-14T01:47:38.449Z,99.90
2019-04-14T01:50:08.525Z,99.90
2019-04-14T01:52:54.449Z,99.90
2019-04-14T01:55:39.476Z,99.90
2019-04-14T01:58:16.570Z,99.90
2019-04-14T02:00:58.099Z,99.90
2019-04-14T02:03:30.530Z,99.90
2019-04-14T02:06:07.142Z,99.90
2019-04-14T02:08:37.258Z,99.90
2019-04-14T02:11:09.745Z,99.90
2019-04-14T02:14:36.517Z,99.90
2019-04-14T02:17:39.233Z,99.90
2019-04-14T02:21:14.832Z,99.90
2019-04-14T02:23:47.594Z,99.90
2019-04-14T02:29:58.334Z,99.90
2019-04-14T02:32:57.266Z,99.90
2019-04-14T02:35:30.196Z,99.90
2019-04-14T02:38:02.248Z,99.90
2019-04-14T02:40:41.046Z,99.90
2019-04-14T02:43:04.057Z,99.90
2019-04-14T02:45:50.473Z,99.90
2019-04-14T02:48:16.712Z,99.90
2019-04-14T02:50:42.205Z,99.90
2019-04-14T02:53:15.744Z,99.90
2019-04-14T02:55:49.468Z,99.90
2019-04-14T02:58:20.174Z,99.90
2019-04-14T03:01:01.830Z,99.90
2019-04-14T03:03:23.812Z,99.90
2019-04-14T03:05:54.446Z,99.90
2019-04-14T03:10:53.988Z,99.90
2019-04-14T03:15:57.386Z,99.90
2019-04-14T03:18:46.586Z,99.90
2019-04-14T03:21:34.352Z,99.90
2019-04-14T03:24:31.980Z,99.90
2019-04-14T03:27:18.441Z,99.90
2019-04-14T03:29:50.362Z,99.90
2019-04-14T03:39:51.425Z,99.90
2019-04-14T03:42:28.863Z,99.90
2019-04-14T03:44:58.726Z,99.90
2019-04-14T03:47:25.700Z,99.90
2019-04-14T03:52:43.460Z,99.90
2019-04-14T03:54:56.790Z,99.90
2019-04-14T03:57:12.592Z,99.90
2019-04-14T03:59:43.439Z,99.90
2019-04-14T04:02:13.996Z,99.90
2019-04-14T04:04:44.516Z,99.90
2019-04-14T04:07:14.961Z,99.90
2019-04-14T04:09:52.188Z,99.90
2019-04-14T04:12:22.556Z,99.90
2019-04-14T04:14:53.551Z,99.90
2019-04-14T04:17:45.181Z,99.90
2019-04-14T04:20:22.100Z,99.90
2019-04-14T04:23:20.501Z,99.90
2019-04-14T04:26:16.823Z,99.90
2019-04-14T04:29:04.954Z,99.90
2019-04-14T04:32:05.742Z,99.90
2019-04-14T04:35:00.597Z,99.90
2019-04-14T04:37:41.175Z,99.90
2019-04-14T04:40:15.792Z,99.90
2019-04-14T04:42:45.817Z,99.90
2019-04-14T04:45:16.993Z,99.90
2019-04-14T04:47:47.050Z,99.90
2019-04-14T04:50:17.124Z,99.90
2019-04-14T04:52:47.527Z,99.90
2019-04-14T04:55:17.722Z,99.90
2019-04-14T04:57:48.179Z,99.90
2019-04-14T05:00:18.389Z,99.90
2019-04-14T05:02:48.475Z,99.90
2019-04-14T05:05:58.205Z,99.90
2019-04-14T05:08:28.410Z,99.90
2019-04-14T05:11:05.388Z,99.90
2019-04-14T05:13:40.234Z,99.90
2019-04-14T05:16:10.661Z,99.90
2019-04-14T05:18:40.544Z,99.90
2019-04-14T05:21:10.463Z,99.90
2019-04-14T05:23:41.005Z,99.90
2019-04-14T05:26:11.321Z,99.90
2019-04-14T05:28:41.666Z,99.90
2019-04-14T05:31:12.174Z,99.90
2019-04-14T05:33:42.555Z,99.90
2019-04-14T05:36:12.859Z,99.90
2019-04-14T05:38:42.867Z,99.90
2019-04-14T05:41:13.682Z,99.90
2019-04-14T05:43:51.434Z,99.90
2019-04-14T05:46:14.937Z,99.90
2019-04-14T05:48:44.718Z,99.90
2019-04-14T05:51:15.407Z,99.90
2019-04-14T05:53:45.844Z,99.90
2019-04-14T05:56:16.439Z,99.90
2019-04-14T05:58:47.126Z,99.90
2019-04-14T06:01:18.138Z,99.90
2019-04-14T06:03:47.910Z,99.90
2019-04-14T06:06:17.611Z,99.90
2019-04-14T06:08:47.295Z,99.90
2019-04-14T06:11:17.087Z,99.90
2019-04-14T06:13:46.775Z,97.20
2019-04-14T06:16:17.889Z,95.50
2019-04-14T06:18:47.623Z,94.00
2019-04-14T06:21:17.477Z,83.80
2019-04-14T06:23:47.222Z,90.60
2019-04-14T06:26:16.971Z,82.90
2019-04-14T06:28:46.708Z,88.10
2019-04-14T06:31:38.144Z,77.50
2019-04-14T06:34:15.061Z,87.50
2019-04-14T06:37:02.395Z,66.70
2019-04-14T06:39:34.747Z,64.80
2019-04-14T06:42:05.083Z,72.20
2019-04-14T06:44:34.754Z,61.20
2019-04-14T06:47:06.254Z,65.20
2019-04-14T06:49:35.986Z,64.50
2019-04-14T06:52:05.728Z,56.70
2019-04-14T06:54:35.409Z,60.30
2019-04-14T06:57:05.105Z,48.20
2019-04-14T06:59:34.810Z,41.10
2019-04-14T07:02:04.614Z,39.90
2019-04-14T07:04:34.429Z,47.00
2019-04-14T07:07:04.130Z,49.70
2019-04-14T07:09:33.933Z,53.80
2019-04-14T07:12:03.724Z,51.20
2019-04-14T07:14:33.492Z,56.10
2019-04-14T07:17:03.388Z,59.20
2019-04-14T07:19:33.091Z,60.60
2019-04-14T07:22:02.893Z,56.30
2019-04-14T07:24:32.625Z,56.60
2019-04-14T07:27:02.440Z,58.90
2019-04-14T07:29:39.065Z,55.20
2019-04-14T07:32:18.650Z,55.20
2019-04-14T07:35:10.329Z,56.90
2019-04-14T07:38:05.051Z,56.40
2019-04-14T07:40:45.999Z,52.60
2019-04-14T07:43:24.716Z,53.10
2019-04-14T07:46:19.156Z,51.70
2019-04-14T07:49:01.698Z,47.10
2019-04-14T07:51:49.076Z,47.70
2019-04-14T07:54:28.819Z,40.00
2019-04-14T07:57:15.373Z,42.20
2019-04-14T08:00:03.976Z,43.20
2019-04-14T08:02:47.510Z,34.90
2019-04-14T08:05:19.935Z,33.00
2019-04-14T08:07:50.932Z,36.60
2019-04-14T08:10:20.612Z,33.60
2019-04-14T08:12:50.364Z,33.30
2019-04-14T08:15:20.079Z,34.90
2019-04-14T08:17:49.836Z,36.50
2019-04-14T08:20:27.339Z,39.40
2019-04-14T08:22:50.925Z,40.00
2019-04-14T08:25:20.676Z,39.70
2019-04-14T08:27:50.469Z,38.40
2019-04-14T08:30:20.672Z,41.60
2019-04-14T08:32:50.425Z,40.40
2019-04-14T08:35:20.189Z,38.50
2019-04-14T08:37:51.666Z,34.00
2019-04-14T08:40:21.356Z,32.60
2019-04-14T08:43:00.370Z,28.60
2019-04-14T08:45:54.866Z,26.80
2019-04-14T08:48:42.414Z,23.50
2019-04-14T08:51:28.594Z,22.30
2019-04-14T08:54:26.145Z,23.30
2019-04-14T08:57:14.825Z,27.60
2019-04-14T09:00:05.635Z,32.00
2019-04-14T09:02:49.917Z,35.10
2019-04-14T09:05:37.557Z,38.00
2019-04-14T09:08:11.957Z,39.20
2019-04-14T09:10:44.755Z,38.30
2019-04-14T09:13:14.422Z,34.80
2019-04-14T09:15:44.164Z,36.30
2019-04-14T09:18:13.920Z,37.70
2019-04-14T09:20:52.208Z,37.80
2019-04-14T09:23:15.066Z,39.60
2019-04-14T09:25:44.867Z,40.50
2019-04-14T09:28:14.728Z,42.20
2019-04-14T09:30:44.415Z,41.80
2019-04-14T09:33:14.151Z,39.90
2019-04-14T09:35:43.819Z,38.90
2019-04-14T09:38:13.537Z,39.30
2019-04-14T09:40:43.359Z,40.70
2019-04-14T09:43:13.104Z,39.20
2019-04-14T09:45:42.748Z,38.40
2019-04-14T09:48:12.623Z,39.20
2019-04-14T09:50:42.293Z,34.90
2019-04-14T09:53:11.995Z,34.50
2019-04-14T09:55:41.709Z,39.40
2019-04-14T09:58:11.417Z,35.20
2019-04-14T10:00:41.640Z,35.30
2019-04-14T10:03:11.665Z,34.10
2019-04-14T10:05:41.323Z,33.30
2019-04-14T10:08:11.044Z,35.90
2019-04-14T10:10:40.829Z,34.50
2019-04-14T10:13:10.715Z,37.60
2019-04-14T10:15:40.584Z,41.10
2019-04-14T10:18:10.321Z,41.30
2019-04-14T10:20:42.512Z,37.50
2019-04-14T10:23:12.326Z,40.00
2019-04-14T10:25:42.044Z,37.40
2019-04-14T10:28:11.772Z,36.50
2019-04-14T10:30:41.460Z,40.60
2019-04-14T10:33:11.199Z,39.90
2019-04-14T10:35:40.943Z,34.80
2019-04-14T10:38:10.723Z,34.00
2019-04-14T10:40:40.479Z,40.60
2019-04-14T10:43:10.188Z,36.40
2019-04-14T10:45:39.851Z,37.30
2019-04-14T10:48:09.557Z,34.00
2019-04-14T10:50:39.274Z,32.60
2019-04-14T10:53:09.019Z,33.90
2019-04-14T10:55:38.702Z,32.90
2019-04-14T10:58:08.481Z,33.70
2019-04-14T11:00:38.190Z,34.20
2019-04-14T11:03:07.989Z,34.00
2019-04-14T11:05:46.491Z,34.90
2019-04-14T11:08:16.214Z,34.70
2019-04-14T11:10:45.895Z,33.60
2019-04-14T11:13:15.765Z,35.10
2019-04-14T11:15:45.477Z,33.60
2019-04-14T11:18:15.268Z,36.40
2019-04-14T11:20:45.044Z,37.30
2019-04-14T11:23:15.918Z,36.20
2019-04-14T11:25:45.637Z,34.80
2019-04-14T11:28:15.394Z,33.70
2019-04-14T11:30:45.119Z,35.70
2019-04-14T11:33:42.573Z,34.20
2019-04-14T11:36:28.047Z,32.10
2019-04-14T11:39:01.829Z,33.10
2019-04-14T11:41:31.528Z,28.20
2019-04-14T11:44:05.566Z,29.30
2019-04-14T11:46:35.495Z,31.10
2019-04-14T11:49:07.203Z,29.90
2019-04-14T11:51:36.885Z,29.70
2019-04-14T11:54:06.866Z,29.80
2019-04-14T11:56:36.596Z,30.00
2019-04-14T11:59:06.394Z,29.20
2019-04-14T12:01:43.840Z,29.90
2019-04-14T12:04:41.613Z,29.90
2019-04-14T12:07:42.246Z,30.90
2019-04-14T12:10:14.920Z,29.60
2019-04-14T12:12:44.794Z,28.70
2019-04-14T12:15:16.559Z,29.10
2019-04-14T12:17:49.487Z,30.00
2019-04-14T12:20:19.339Z,29.20
2019-04-14T12:22:49.079Z,29.20
2019-04-14T12:25:21.285Z,30.80
2019-04-14T12:27:51.281Z,30.00
2019-04-14T12:30:22.299Z,30.40
2019-04-14T12:32:52.195Z,31.10
2019-04-14T12:35:21.957Z,30.00
2019-04-14T12:37:51.780Z,29.80
2019-04-14T12:40:21.600Z,30.20
2019-04-14T12:42:59.033Z,30.20
2019-04-14T12:45:40.000Z,31.00
2019-04-14T12:48:27.275Z,32.40
2019-04-14T12:51:00.792Z,31.60
2019-04-14T12:53:30.518Z,30.60
2019-04-14T12:56:01.581Z,30.20
2019-04-14T12:58:50.186Z,29.10
2019-04-14T13:01:20.635Z,29.30
2019-04-14T13:03:50.319Z,29.80
2019-04-14T13:06:20.082Z,30.30
2019-04-14T13:08:49.785Z,30.00
2019-04-14T13:11:19.541Z,30.00
2019-04-14T13:13:51.599Z,29.70
2019-04-14T13:16:21.352Z,29.40
2019-04-14T13:18:51.227Z,30.00
2019-04-14T13:21:21.009Z,28.80
2019-04-14T13:23:50.719Z,29.00
2019-04-14T13:26:22.609Z,29.80
2019-04-14T13:28:52.372Z,29.60
2019-04-14T13:31:22.094Z,29.00
2019-04-14T13:33:54.925Z,29.50
2019-04-14T13:36:25.678Z,28.90
2019-04-14T13:38:57.399Z,28.40
2019-04-14T13:41:27.771Z,28.10
2019-04-14T13:43:57.888Z,28.60
2019-04-14T13:46:27.963Z,28.10
2019-04-14T13:48:57.827Z,29.60
2019-04-14T13:51:27.628Z,28.50
2019-04-14T13:53:57.415Z,28.30
2019-04-14T13:56:27.243Z,27.90
2019-04-14T13:58:56.996Z,28.60
2019-04-14T14:01:26.694Z,28.30
2019-04-14T14:03:56.612Z,27.20
2019-04-14T14:06:26.466Z,27.90
2019-04-14T14:08:59.316Z,27.30
2019-04-14T14:11:54.018Z,27.00
2019-04-14T14:14:38.505Z,27.60
2019-04-14T14:17:27.444Z,28.20
2019-04-14T14:20:05.285Z,27.20
2019-04-14T14:22:59.710Z,28.30
2019-04-14T14:25:33.612Z,27.10
2019-04-14T14:28:03.441Z,26.50
2019-04-14T14:30:33.402Z,27.40
2019-04-14T14:33:03.185Z,26.10
2019-04-14T14:35:33.073Z,27.40
2019-04-14T14:38:02.845Z,27.50
2019-04-14T14:40:32.588Z,26.40
2019-04-14T14:43:03.915Z,27.00
2019-04-14T14:45:41.575Z,27.20
2019-04-14T14:48:38.781Z,26.50
2019-04-14T14:51:29.909Z,26.60
2019-04-14T14:54:02.453Z,25.90
2019-04-14T14:56:32.679Z,25.40
2019-04-14T14:59:07.516Z,25.10
2019-04-14T15:01:39.141Z,25.00
2019-04-14T15:04:10.731Z,24.50
2019-04-14T15:06:40.683Z,24.70
2019-04-14T15:09:12.224Z,24.10
2019-04-14T15:11:42.207Z,24.20
2019-04-14T15:14:14.450Z,24.50
2019-04-14T15:16:46.161Z,24.90
2019-04-14T15:19:18.219Z,24.30
2019-04-14T15:21:50.678Z,23.90
2019-04-14T15:24:28.109Z,24.20
2019-04-14T15:26:57.985Z,23.90
2019-04-14T15:29:31.258Z,24.40
2019-04-14T15:32:01.917Z,24.60
2019-04-14T15:34:31.625Z,25.60
2019-04-14T15:37:01.311Z,24.60
2019-04-14T15:39:31.085Z,23.70
2019-04-14T15:42:00.788Z,23.60
2019-04-14T15:44:30.597Z,23.70
2019-04-14T15:47:00.290Z,24.20
2019-04-14T15:49:30.306Z,24.50
2019-04-14T15:51:59.975Z,24.60
2019-04-14T15:54:32.636Z,23.90
2019-04-14T15:57:23.474Z,24.10
2019-04-14T16:00:06.845Z,23.70
2019-04-14T16:02:55.427Z,23.70
2019-04-14T16:05:32.643Z,23.80
2019-04-14T16:08:21.227Z,24.20
2019-04-14T16:11:04.151Z,25.20
2019-04-14T16:13:51.542Z,24.80
2019-04-14T16:16:30.397Z,24.40
2019-04-14T16:19:15.285Z,24.90
2019-04-14T16:21:45.102Z,23.90
2019-04-14T16:24:14.778Z,26.30
2019-04-14T16:26:52.657Z,24.20
2019-04-14T16:29:44.107Z,24.00
2019-04-14T16:32:41.609Z,23.40
2019-04-14T16:35:15.901Z,25.20
2019-04-14T16:37:46.681Z,24.40
2019-04-14T16:40:16.494Z,24.80
2019-04-14T16:42:46.245Z,23.40
2019-04-14T16:45:18.842Z,23.30
2019-04-14T16:47:48.545Z,23.50
2019-04-14T16:50:18.302Z,23.20
2019-04-14T16:52:52.475Z,24.00
2019-04-14T16:55:36.531Z,23.60
2019-04-14T16:58:40.146Z,24.50
2019-04-14T17:01:12.856Z,23.50
2019-04-14T17:03:42.507Z,23.20
2019-04-14T17:06:12.359Z,24.70
2019-04-14T17:08:50.615Z,25.30
2019-04-14T17:11:21.035Z,25.30
2019-04-14T17:14:08.714Z,25.90
2019-04-14T17:17:02.763Z,26.70
2019-04-14T17:20:05.113Z,26.60
2019-04-14T17:23:10.638Z,26.60
2019-04-14T17:26:03.648Z,26.80
2019-04-14T17:28:53.165Z,27.10
2019-04-14T17:31:40.531Z,27.20
2019-04-14T17:34:27.898Z,27.50
2019-04-14T17:37:19.434Z,26.50
2019-04-14T17:40:17.268Z,26.70
2019-04-14T17:42:58.094Z,26.80
2019-04-14T17:45:52.557Z,26.90
2019-04-14T17:48:39.791Z,27.30
2019-04-14T17:51:17.155Z,27.30
2019-04-14T17:53:51.592Z,27.10
2019-04-14T17:56:29.873Z,27.80
2019-04-14T17:59:26.299Z,28.20
2019-04-14T18:02:00.234Z,27.90
2019-04-14T18:04:54.834Z,27.50
2019-04-14T18:07:34.883Z,28.00
2019-04-14T18:10:23.925Z,28.60
2019-04-14T18:13:15.786Z,27.60
2019-04-14T18:15:59.247Z,27.40
2019-04-14T18:18:47.217Z,27.90
2019-04-14T18:21:19.015Z,29.00
2019-04-14T18:23:49.931Z,28.60
2019-04-14T18:26:19.736Z,29.10
2019-04-14T18:29:14.439Z,28.50
2019-04-14T18:32:09.159Z,29.10
2019-04-14T18:34:49.768Z,29.40
2019-04-14T18:37:38.578Z,29.70
2019-04-14T18:40:15.293Z,28.30
2019-04-14T18:42:54.822Z,28.10
2019-04-14T18:45:30.212Z,29.50
2019-04-14T18:48:36.301Z,28.90
2019-04-14T18:51:36.857Z,28.60
2019-04-14T18:54:26.778Z,30.20
2019-04-14T18:57:10.133Z,30.00
2019-04-14T19:00:13.693Z,29.30
2019-04-14T19:03:02.466Z,29.50
2019-04-14T19:05:32.179Z,28.80
2019-04-14T19:08:02.100Z,28.40
2019-04-14T19:10:31.895Z,28.10
2019-04-14T19:13:24.049Z,28.00
2019-04-14T19:16:13.054Z,28.30
2019-04-14T19:18:48.667Z,28.60
2019-04-14T19:21:23.627Z,28.40
2019-04-14T19:23:54.637Z,28.20
2019-04-14T19:26:24.606Z,28.30
2019-04-14T19:28:58.494Z,27.80
2019-04-14T19:31:32.063Z,27.90
2019-04-14T19:34:04.420Z,28.70
2019-04-14T19:36:38.048Z,28.30
2019-04-14T19:39:14.072Z,28.90
2019-04-14T19:41:44.362Z,28.30
2019-04-14T19:44:18.179Z,28.30
2019-04-14T19:46:51.201Z,28.40
2019-04-14T19:49:21.250Z,28.40
2019-04-14T19:51:52.409Z,29.40
2019-04-14T19:54:22.285Z,29.60
2019-04-14T19:56:52.374Z,29.40
2019-04-14T19:59:34.198Z,29.00
2019-04-14T20:02:04.007Z,28.80
2019-04-14T20:04:33.707Z,29.50
2019-04-14T20:07:03.688Z,29.20
2019-04-14T20:09:34.619Z,28.90
2019-04-14T20:12:04.976Z,29.10
2019-04-14T20:14:37.480Z,29.50
2019-04-14T20:17:26.880Z,29.30
2019-04-14T20:20:16.014Z,29.70
2019-04-14T20:23:11.304Z,29.10
2019-04-14T20:25:59.077Z,29.20
2019-04-14T20:28:42.935Z,29.30
2019-04-14T20:31:31.652Z,29.00
2019-04-14T20:34:01.819Z,29.20
2019-04-14T20:36:31.870Z,29.10
2019-04-14T20:39:01.858Z,29.10
2019-04-14T20:41:32.042Z,28.90
2019-04-14T20:44:02.150Z,29.70
2019-04-14T20:46:31.951Z,29.90
2019-04-14T20:49:01.780Z,29.40
2019-04-14T20:51:31.486Z,29.10
2019-04-14T20:54:01.595Z,29.50
2019-04-14T20:56:39.692Z,29.10
2019-04-14T20:59:21.208Z,29.60
2019-04-14T21:02:08.453Z,29.30
2019-04-14T21:04:57.329Z,29.80
2019-04-14T21:07:52.591Z,29.50
2019-04-14T21:10:30.308Z,29.90
2019-04-14T21:13:26.049Z,29.40
2019-04-14T21:16:12.497Z,29.60
2019-04-14T21:18:48.583Z,29.80
2019-04-14T21:21:37.339Z,29.70
2019-04-14T21:24:25.958Z,29.70
2019-04-14T21:27:00.901Z,29.70
2019-04-14T21:29:44.817Z,29.90
2019-04-14T21:32:18.214Z,29.70
2019-04-14T21:35:06.834Z,30.80
2019-04-14T21:37:58.712Z,29.90
2019-04-14T21:40:44.359Z,29.90
2019-04-14T21:43:14.278Z,29.70
2019-04-14T21:45:44.164Z,29.70
2019-04-14T21:48:14.132Z,29.30
2019-04-14T21:50:43.935Z,30.00
2019-04-14T21:53:13.669Z,29.90
2019-04-14T21:55:43.351Z,29.90
2019-04-14T21:58:31.162Z,29.80
2019-04-14T22:01:53.545Z,29.90
2019-04-14T22:05:00.353Z,29.80
2019-04-14T22:07:45.844Z,29.80
2019-04-14T22:10:25.737Z,30.00
2019-04-14T22:12:55.995Z,30.20
2019-04-14T22:15:26.851Z,30.40
2019-04-14T22:17:56.777Z,30.90
2019-04-14T22:20:26.511Z,30.70
2019-04-14T22:22:56.401Z,30.70
2019-04-14T22:25:26.153Z,31.60
2019-04-14T22:27:56.293Z,32.20
2019-04-14T22:30:26.217Z,32.50
2019-04-14T22:32:55.903Z,31.70
2019-04-14T22:35:25.615Z,31.10
2019-04-14T22:37:55.352Z,31.80
2019-04-14T22:40:25.110Z,31.70
2019-04-14T22:42:54.792Z,31.60
2019-04-14T22:45:24.555Z,31.90
2019-04-14T22:47:54.220Z,32.00
2019-04-14T22:50:26.717Z,32.60
2019-04-14T22:52:56.383Z,32.00
2019-04-14T22:55:26.077Z,31.80
2019-04-14T22:57:55.794Z,31.80
2019-04-14T23:00:43.874Z,32.80
2019-04-14T23:03:35.401Z,32.20
2019-04-14T23:06:36.372Z,32.50
2019-04-14T23:09:37.631Z,32.50
2019-04-14T23:12:35.427Z,32.30
2019-04-14T23:15:39.966Z,32.50
2019-04-14T23:18:28.572Z,33.20
2019-04-14T23:21:07.705Z,32.70
2019-04-14T23:23:52.037Z,32.80
2019-04-14T23:26:21.875Z,33.30
2019-04-14T23:28:51.591Z,33.20
2019-04-14T23:31:21.415Z,33.30
2019-04-14T23:33:51.156Z,34.20
2019-04-14T23:36:20.872Z,33.70
2019-04-14T23:38:52.036Z,34.50
2019-04-14T23:41:21.752Z,33.90
2019-04-14T23:43:51.491Z,34.00
2019-04-14T23:46:21.472Z,34.40
2019-04-14T23:48:52.842Z,34.80
2019-04-14T23:51:22.657Z,35.00
2019-04-14T23:53:52.514Z,34.80
2019-04-14T23:56:22.310Z,35.50
2019-04-14T23:58:52.108Z,34.90
